Big Rapids, MI

4:59 PM EDT on August 22, 2019 (GMT -0400)
Roben-Hood

Weather History for KRQB - May, 2019

Change the Weather History Date:

Tuesday, May 21, 2019

  Actual Average Record
Temperature  
Mean Temperature 48 °F -  
Max Temperature 63 °F 72 °F 89 °F (1987)
Min Temperature 34 °F 44 °F 30 °F (2003)
Degree Days  
Heating Degree Days 16    
Moisture  
Dew Point 35 °F    
Average Humidity 63    
Maximum Humidity 98    
Minimum Humidity 31    
Precipitation  
Precipitation 0.10 in - - ()
Sea Level Pressure  
Sea Level Pressure 30.15 in    
Wind  
Wind Speed 4 mph (ESE)    
Max Wind Speed 18 mph    
Max Gust Speed 23 mph    
Visibility 10 miles    
Events      
Averages and records for this station are not official NWS values.
T = Trace of Precipitation, MM = Missing Value Source: NWS Daily Summary

Daily Weather History Graph

Daily Weather History Graph

Search for Another Location

Airport or City:

Astronomy

May. 21, 2019 Rise Set
Actual Time 6:11 AM EDT 9:06 PM EDT
Civil Twilight 5:37 AM EDT 9:40 PM EDT
Nautical Twilight 4:54 AM EDT 10:23 PM EDT
Astronomical Twilight 4:03 AM EDT 11:14 PM EDT
Moon No Moon Rise 8:25 AM EDT (5/21)
Length of Visible Light 16h 03m
Length of Day
14h 55m
Waning Gibbous, 91% of the Moon is Illuminated
May 21
Waning Gibbous
May 26
Last Quarter
Jun 3
New
Jun 10
First Quarter
Jun 17
Full

Hourly Weather History & Observations

Time (EDT) Temp. Windchill Dew Point Humidity Pressure Visibility Wind Dir Wind Speed Gust Speed Precip Events Conditions
12:15 AM 39.7 °F - 36.1 °F 87% 30.14 in 10.0 mi Calm Calm - N/A   Clear
12:35 AM 39.6 °F - 36.0 °F 87% 30.14 in 10.0 mi Calm Calm - N/A   Clear
12:55 AM 39.2 °F - 36.0 °F 88% 30.14 in 10.0 mi Calm Calm - N/A   Clear
12:56 AM 39.2 °F - 36.0 °F 88% 30.14 in 10.0 mi Calm Calm - N/A   Clear
1:15 AM 38.7 °F 36.3 °F 35.8 °F 89% 30.15 in 10.0 mi West 3.5 mph - N/A   Clear
1:16 AM 38.7 °F - 35.8 °F 89% 30.15 in 10.0 mi Calm Calm - N/A   Clear
1:35 AM 37.9 °F 35.5 °F 35.6 °F 91% 30.15 in 10.0 mi WNW 3.5 mph - N/A   Clear
1:55 AM 37.4 °F 33.8 °F 35.2 °F 92% 30.16 in 10.0 mi West 4.6 mph - N/A   Clear
2:15 AM 37.8 °F - 36.0 °F 93% 30.15 in 10.0 mi Calm Calm - N/A   Clear
2:16 AM 37.8 °F - 36.0 °F 93% 30.15 in 10.0 mi Calm Calm - N/A   Clear
2:35 AM 36.5 °F - 34.9 °F 94% 30.16 in 10.0 mi Calm Calm - N/A   Clear
2:55 AM 36.3 °F - 34.7 °F 94% 30.15 in 10.0 mi Calm Calm - N/A   Clear
3:15 AM 36.1 °F - 34.7 °F 94% 30.15 in 10.0 mi Calm Calm - N/A   Clear
3:16 AM 36.1 °F - 34.9 °F 95% 30.15 in 10.0 mi Calm Calm - N/A   Clear
3:35 AM 35.8 °F - 34.3 °F 94% 30.16 in 10.0 mi Calm Calm - N/A   Clear
3:36 AM 35.8 °F - 34.5 °F 95% 30.16 in 10.0 mi Calm Calm - N/A   Clear
3:55 AM 35.8 °F - 34.3 °F 94% 30.17 in 10.0 mi Calm Calm - N/A   Clear
4:15 AM 34.9 °F - 33.8 °F 96% 30.18 in 10.0 mi Calm Calm - N/A   Clear
4:35 AM 35.6 °F - 34.7 °F 97% 30.18 in 10.0 mi Calm Calm - N/A   Clear
4:55 AM 35.1 °F - 34.2 °F 97% 30.17 in 10.0 mi Calm Calm - N/A   Clear
4:56 AM 35.1 °F - 34.0 °F 96% 30.17 in 10.0 mi Calm Calm - N/A   Clear
5:15 AM 34.7 °F - 33.8 °F 97% 30.17 in 10.0 mi Calm Calm - N/A   Clear
5:16 AM 34.7 °F - 33.8 °F 97% 30.17 in 10.0 mi Calm Calm - N/A   Clear
5:35 AM 34.9 °F - 34.0 °F 97% 30.16 in 10.0 mi Calm Calm - N/A   Clear
5:55 AM 34.7 °F - 33.8 °F 97% 30.16 in 10.0 mi Calm Calm - N/A   Clear
6:15 AM 34.7 °F - 33.8 °F 97% 30.17 in 10.0 mi Calm Calm - N/A   Clear
6:16 AM 34.7 °F - 33.8 °F 97% 30.17 in 10.0 mi Calm Calm - N/A   Clear
6:35 AM 34.7 °F - 33.8 °F 97% 30.18 in 10.0 mi Calm Calm - N/A   Clear
6:55 AM 34.7 °F - 33.8 °F 97% 30.18 in 10.0 mi Calm Calm - N/A   Clear
7:15 AM 35.2 °F - 34.7 °F 98% 30.18 in 10.0 mi Calm Calm - N/A   Clear
7:35 AM 37.0 °F - 36.3 °F 97% 30.18 in 10.0 mi Calm Calm - N/A   Clear
7:36 AM 37.0 °F - 36.5 °F 98% 30.18 in 10.0 mi Calm Calm - N/A   Clear
7:55 AM 38.5 °F - 37.6 °F 97% 30.19 in 10.0 mi Calm Calm - N/A   Clear
7:56 AM 38.7 °F - 37.8 °F 97% 30.19 in 10.0 mi Calm Calm - N/A   Clear
8:15 AM 39.9 °F - 38.7 °F 95% 30.19 in 10.0 mi Calm Calm - N/A   Clear
8:16 AM 40.1 °F - 38.8 °F 95% 30.19 in 10.0 mi Calm Calm - N/A   Clear
8:35 AM 41.7 °F - 39.9 °F 93% 30.19 in 10.0 mi Calm Calm - N/A   Clear
8:55 AM 43.0 °F - 40.5 °F 91% 30.19 in 10.0 mi Calm Calm - N/A   Clear
8:56 AM 43.0 °F - 40.5 °F 91% 30.19 in 10.0 mi Calm Calm - N/A   Clear
9:15 AM 45.1 °F - 42.1 °F 89% 30.20 in 10.0 mi Calm Calm - N/A   Clear
9:16 AM 45.3 °F - 42.1 °F 88% 30.20 in 10.0 mi Calm Calm - N/A   Clear
9:35 AM 47.5 °F - 42.8 °F 84% 30.21 in 10.0 mi Calm Calm - N/A   Clear
9:55 AM 51.1 °F - 43.2 °F 74% 30.20 in 10.0 mi South 5.8 mph - N/A   Clear
9:56 AM 51.1 °F - 42.8 °F 73% 30.20 in 10.0 mi South 4.6 mph - N/A   Clear
10:15 AM 54.9 °F - 40.5 °F 58% 30.19 in 10.0 mi East 9.2 mph - N/A   Clear
10:35 AM 56.7 °F - 37.6 °F 49% 30.19 in 10.0 mi ESE 11.5 mph 16.1 mph N/A   Clear
10:36 AM 56.8 °F - 37.8 °F 49% 30.19 in 10.0 mi ESE 12.7 mph 16.1 mph N/A   Clear
10:55 AM 57.0 °F - 36.1 °F 46% 30.19 in 10.0 mi ESE 15.0 mph 18.4 mph N/A   Clear
11:15 AM 57.2 °F - 35.6 °F 44% 30.19 in 10.0 mi East 15.0 mph - N/A   Clear
11:35 AM 58.1 °F - 35.1 °F 42% 30.19 in 10.0 mi ESE 10.4 mph 20.7 mph N/A   Clear
11:36 AM 58.1 °F - 35.2 °F 42% 30.19 in 10.0 mi ESE 10.4 mph 20.7 mph N/A   Clear
11:55 AM 58.8 °F - 34.5 °F 40% 30.19 in 10.0 mi ESE 10.4 mph 19.6 mph N/A   Clear
12:15 PM 59.5 °F - 34.2 °F 39% 30.19 in 10.0 mi SE 13.8 mph - N/A   Clear
12:35 PM 59.9 °F - 33.1 °F 36% 30.19 in 10.0 mi East 12.7 mph 20.7 mph N/A   Clear
12:55 PM 60.3 °F - 34.2 °F 38% 30.19 in 10.0 mi SE 11.5 mph 19.6 mph N/A   Clear
12:56 PM 60.3 °F - 33.8 °F 37% 30.19 in 10.0 mi ESE 12.7 mph 19.6 mph N/A   Clear
1:15 PM 60.8 °F - 35.2 °F 38% 30.19 in 10.0 mi ESE 13.8 mph 23.0 mph N/A   Clear
1:16 PM 60.8 °F - 35.1 °F 38% 30.19 in 10.0 mi ESE 15.0 mph 23.0 mph N/A   Clear
1:35 PM 60.3 °F - 35.8 °F 40% 30.18 in 10.0 mi SE 9.2 mph 20.7 mph N/A   Clear
1:55 PM 60.8 °F - 35.6 °F 39% 30.17 in 10.0 mi ESE 13.8 mph 18.4 mph N/A   Clear
1:56 PM 60.8 °F - 35.6 °F 39% 30.17 in 10.0 mi ESE 15.0 mph 18.4 mph N/A   Clear
2:15 PM 61.9 °F - 36.1 °F 38% 30.17 in 10.0 mi ESE 9.2 mph - N/A   Clear
2:16 PM 61.9 °F - 36.3 °F 39% 30.17 in 10.0 mi SE 8.1 mph - N/A   Clear
2:35 PM 62.1 °F - 36.0 °F 38% 30.18 in 10.0 mi ESE 12.7 mph 18.4 mph N/A   Clear
2:55 PM 62.6 °F - 36.7 °F 38% 30.18 in 10.0 mi SE 6.9 mph 16.1 mph N/A   Clear
3:15 PM - - - N/A% - - North - - N/A   Unknown
3:16 PM - - - N/A% - - North - - N/A   Unknown
3:35 PM - - - N/A% - - North - - N/A   Unknown
3:36 PM - - - N/A% - - North - - N/A   Unknown
3:55 PM 63.0 °F - 37.0 °F 38% 30.17 in 10.0 mi ESE 13.8 mph 20.7 mph 0.10 in   Clear
4:15 PM 63.0 °F - 37.0 °F 38% 30.16 in 10.0 mi SE 10.4 mph 17.3 mph N/A   Clear
4:35 PM 63.0 °F - 37.0 °F 38% 30.15 in 10.0 mi SE 11.5 mph 21.9 mph N/A   Clear
4:55 PM 62.2 °F - 36.3 °F 38% 30.14 in 10.0 mi SE 11.5 mph 19.6 mph N/A   Clear
4:56 PM 62.2 °F - 36.3 °F 38% 30.14 in 10.0 mi SE 9.2 mph 19.6 mph N/A   Clear
5:15 PM 62.6 °F - 36.5 °F 38% 30.14 in 10.0 mi ESE 12.7 mph 23.0 mph N/A   Clear
5:35 PM 62.4 °F - 35.1 °F 36% 30.14 in 10.0 mi SE 11.5 mph 20.7 mph N/A   Clear
5:36 PM 62.4 °F - 35.2 °F 36% 30.14 in 10.0 mi SE 10.4 mph 20.7 mph N/A   Clear
5:55 PM 62.1 °F - 33.6 °F 34% 30.13 in 10.0 mi ESE 13.8 mph 18.4 mph N/A   Clear
6:15 PM 61.9 °F - 32.4 °F 33% 30.14 in 10.0 mi East 15.0 mph 20.7 mph N/A   Clear
6:35 PM 61.7 °F - 30.9 °F 31% 30.13 in 10.0 mi ESE 15.0 mph 20.7 mph N/A   Clear
6:36 PM 61.7 °F - 30.7 °F 31% 30.12 in 10.0 mi ESE 15.0 mph 20.7 mph N/A   Clear
6:55 PM 61.5 °F - 30.7 °F 31% 30.12 in 10.0 mi ESE 15.0 mph 20.7 mph N/A   Clear
7:15 PM 61.2 °F - 30.9 °F 32% 30.12 in 10.0 mi ESE 18.4 mph - N/A   Clear
7:35 PM 60.1 °F - 29.7 °F 32% 30.12 in 10.0 mi ESE 13.8 mph 18.4 mph N/A   Scattered Clouds
7:36 PM 60.1 °F - 29.7 °F 32% 30.12 in 10.0 mi ESE 13.8 mph 18.4 mph N/A   Scattered Clouds
7:55 PM 60.3 °F - 31.8 °F 34% 30.11 in 10.0 mi ESE 12.7 mph - N/A   Mostly Cloudy
7:56 PM 60.3 °F - 31.8 °F 34% 30.11 in 10.0 mi ESE 12.7 mph - N/A   Mostly Cloudy
8:15 PM 59.9 °F - 32.2 °F 35% 30.10 in 10.0 mi ESE 10.4 mph - N/A   Overcast
8:35 PM 59.0 °F - 34.3 °F 40% 30.09 in 10.0 mi ESE 10.4 mph - N/A   Mostly Cloudy
8:36 PM 59.0 °F - 34.7 °F 40% 30.09 in 10.0 mi SE 10.4 mph - N/A   Mostly Cloudy
8:55 PM 58.5 °F - 38.3 °F 47% 30.09 in 10.0 mi SE 8.1 mph - N/A   Scattered Clouds
8:56 PM 58.5 °F - 38.5 °F 47% 30.09 in 10.0 mi SE 8.1 mph - N/A   Scattered Clouds
9:15 PM 58.1 °F - 38.1 °F 47% 30.09 in 10.0 mi SE 9.2 mph 16.1 mph N/A   Scattered Clouds
9:35 PM 57.9 °F - 36.0 °F 44% 30.09 in 10.0 mi SE 9.2 mph 16.1 mph N/A   Clear
9:55 PM 57.0 °F - 34.0 °F 42% 30.10 in 10.0 mi ESE 8.1 mph - N/A   Clear
10:15 PM 56.7 °F - 32.0 °F 39% 30.11 in 10.0 mi East 12.7 mph 18.4 mph N/A   Clear
10:16 PM 56.7 °F - 32.0 °F 39% 30.10 in 10.0 mi East 13.8 mph - N/A   Clear
10:35 PM 56.3 °F - 31.8 °F 39% 30.10 in 10.0 mi East 11.5 mph - N/A   Clear
10:36 PM 56.1 °F - 31.8 °F 40% 30.10 in 10.0 mi East 10.4 mph - N/A   Clear
10:55 PM 55.4 °F - 31.6 °F 40% 30.10 in 10.0 mi East 13.8 mph 19.6 mph N/A   Clear
11:15 PM 54.9 °F - 32.2 °F 42% 30.10 in 10.0 mi ESE 10.4 mph 16.1 mph N/A   Scattered Clouds
11:16 PM 54.9 °F - 32.2 °F 42% 30.10 in 10.0 mi ESE 11.5 mph 16.1 mph N/A   Scattered Clouds
11:35 PM 54.7 °F - 32.9 °F 44% 30.10 in 10.0 mi ESE 10.4 mph 18.4 mph N/A   Scattered Clouds
11:36 PM 54.7 °F - 33.1 °F 44% 30.10 in 10.0 mi ESE 8.1 mph 18.4 mph N/A   Scattered Clouds
11:55 PM 54.0 °F - 33.4 °F 46% 30.09 in 10.0 mi East 11.5 mph - N/A   Clear